Time;durP1;ratioP1;P1;durP2;ratioP2;P2;SDS_P1;SDS_P2;PMS_P1;PMS_P2;Temp;Humidity;BMP_temperature;BMP_pressure;BME280_temperature;BME280_humidity;BME280_pressure;Samples;Min_cycle;Max_cycle;Signal;HPM_P1;HPM_P2
2022/09/27 00:00:44;;;;;;;25.00;4.78;;;;;;;;;;4973760;28;20035;-60
2022/09/27 00:03:11;;;;;;;26.23;4.82;;;;;;;;;;4978839;28;20049;-61
2022/09/27 00:05:39;;;;;;;27.65;4.22;;;;;;;;;;4979607;28;20489;-60
2022/09/27 00:08:06;;;;;;;21.77;4.88;;;;;;;;;;4976934;28;20034;-61
2022/09/27 00:10:33;;;;;;;24.45;5.07;;;;;;;;;;4987346;28;20034;-57
2022/09/27 00:13:00;;;;;;;28.88;4.97;;;;;;;;;;4990179;28;20049;-60
2022/09/27 00:15:27;;;;;;;30.35;4.72;;;;;;;;;;4994298;28;20041;-60
2022/09/27 00:17:54;;;;;;;29.27;6.60;;;;;;;;;;4994166;28;20427;-61
2022/09/27 00:20:22;;;;;;;29.88;7.40;;;;;;;;;;4992302;28;20049;-61
2022/09/27 00:22:50;;;;;;;31.63;8.57;;;;;;;;;;4993730;28;20044;-59
2022/09/27 00:25:17;;;;;;;36.40;11.30;;;;;;;;;;4994242;28;20081;-58
2022/09/27 00:27:44;;;;;;;56.78;14.07;;;;;;;;;;4994131;28;20100;-59
2022/09/27 00:30:12;;;;;;;57.70;15.82;;;;;;;;;;4989018;28;20042;-61
2022/09/27 00:32:39;;;;;;;72.78;21.90;;;;;;;;;;4990946;28;20030;-60
2022/09/27 00:35:07;;;;;;;83.50;23.83;;;;;;;;;;4991850;28;20432;-59
2022/09/27 00:37:34;;;;;;;84.70;24.83;;;;;;;;;;4994616;28;20034;-60
2022/09/27 00:40:01;;;;;;;95.55;27.98;;;;;;;;;;4994268;28;20038;-58
2022/09/27 00:42:28;;;;;;;98.85;29.70;;;;;;;;;;4994158;28;20047;-59
2022/09/27 00:45:03;;;;;;;104.30;29.20;;;;;;;;;;4994358;28;20030;-59
2022/09/27 00:47:34;;;;;;;121.10;30.63;;;;;;;;;;4994232;28;20050;-60
2022/09/27 00:50:01;;;;;;;103.95;30.45;;;;;;;;;;4993827;28;20113;-60
2022/09/27 00:52:30;;;;;;;101.18;31.10;;;;;;;;;;4993762;28;20026;-60
2022/09/27 00:55:08;;;;;;;101.28;30.42;;;;;;;;;;4993588;28;20026;-59
2022/09/27 00:57:35;;;;;;;87.32;28.33;;;;;;;;;;4990478;28;20479;-60
2022/09/27 01:00:09;;;;;;;94.63;29.42;;;;;;;;;;5000054;28;20496;-59
2022/09/27 01:02:38;;;;;;;95.00;29.42;;;;;;;;;;5000643;28;20188;-60
2022/09/27 01:05:06;;;;;;;121.88;33.13;;;;;;;;;;4993568;28;20096;-60
2022/09/27 01:07:33;;;;;;;144.23;33.95;;;;;;;;;;4993866;28;20113;-55
2022/09/27 01:10:01;;;;;;;116.45;31.27;;;;;;;;;;4993495;28;20041;-56
2022/09/27 01:12:43;;;;;;;117.88;31.85;;;;;;;;;;4997660;28;20026;-59
2022/09/27 01:15:22;;;;;;;101.45;31.35;;;;;;;;;;5001859;28;20061;-60
2022/09/27 01:17:59;;;;;;;115.18;32.08;;;;;;;;;;4998074;28;20034;-58
2022/09/27 01:20:29;;;;;;;95.75;30.65;;;;;;;;;;4998428;28;20404;-61
2022/09/27 01:23:02;;;;;;;96.57;29.35;;;;;;;;;;4991059;28;20385;-62
2022/09/27 01:25:45;;;;;;;103.93;29.52;;;;;;;;;;4990628;28;20850;-60
2022/09/27 01:28:27;;;;;;;108.25;29.48;;;;;;;;;;4991589;28;20030;-60
2022/09/27 01:30:59;;;;;;;91.78;28.50;;;;;;;;;;4991602;28;20040;-60
2022/09/27 01:33:43;;;;;;;99.47;28.25;;;;;;;;;;4989982;28;20025;-59
2022/09/27 01:36:19;;;;;;;86.68;27.50;;;;;;;;;;4991479;28;20547;-64
2022/09/27 01:39:05;;;;;;;83.95;25.67;;;;;;;;;;4992028;28;20140;-60
2022/09/27 01:41:50;;;;;;;86.55;26.35;;;;;;;;;;4999801;28;20064;-61
2022/09/27 01:44:39;;;;;;;83.45;25.70;;;;;;;;;;5004965;28;20018;-60
2022/09/27 01:47:12;;;;;;;79.45;25.73;;;;;;;;;;4996362;28;20041;-60
2022/09/27 01:49:51;;;;;;;66.97;24.38;;;;;;;;;;5000487;28;20026;-60
2022/09/27 01:52:20;;;;;;;70.50;24.17;;;;;;;;;;5000947;28;20077;-60
2022/09/27 01:54:51;;;;;;;73.40;24.52;;;;;;;;;;5012689;28;20018;-60
2022/09/27 01:57:22;;;;;;;62.28;21.92;;;;;;;;;;5012843;28;20037;-60
2022/09/27 02:00:08;;;;;;;64.63;22.77;;;;;;;;;;5012678;28;20033;-60
2022/09/27 02:02:38;;;;;;;66.75;22.80;;;;;;;;;;5012357;28;20034;-60
2022/09/27 02:05:07;;;;;;;62.13;21.35;;;;;;;;;;5012585;28;20069;-59
2022/09/27 02:08:12;;;;;;;63.72;21.05;;;;;;;;;;5012669;28;20022;-59
2022/09/27 02:10:41;;;;;;;58.10;21.48;;;;;;;;;;4952239;29;20114;-59
2022/09/27 02:13:08;;;;;;;55.67;21.23;;;;;;;;;;4952071;29;20390;-59
2022/09/27 02:15:42;;;;;;;52.70;19.85;;;;;;;;;;4982403;28;20038;-59
2022/09/27 02:18:13;;;;;;;59.60;21.00;;;;;;;;;;5012529;28;20034;-59
2022/09/27 02:20:49;;;;;;;58.08;20.95;;;;;;;;;;5011368;28;20029;-59
2022/09/27 02:23:24;;;;;;;52.22;19.52;;;;;;;;;;5012210;28;20026;-60
2022/09/27 02:26:03;;;;;;;49.83;19.45;;;;;;;;;;5012499;28;20053;-59
2022/09/27 02:28:43;;;;;;;52.72;19.70;;;;;;;;;;5012683;28;20022;-59
2022/09/27 02:31:10;;;;;;;52.17;19.35;;;;;;;;;;5016318;28;20041;-59
2022/09/27 02:33:43;;;;;;;49.33;18.48;;;;;;;;;;5016127;28;20030;-59
2022/09/27 02:36:11;;;;;;;50.13;17.02;;;;;;;;;;5016277;28;20026;-60
2022/09/27 02:38:38;;;;;;;51.88;17.95;;;;;;;;;;5016103;28;20104;-60
2022/09/27 02:41:13;;;;;;;57.75;17.85;;;;;;;;;;5016098;28;20030;-60
2022/09/27 02:43:40;;;;;;;43.92;17.52;;;;;;;;;;5016149;28;20042;-60
2022/09/27 02:46:07;;;;;;;49.80;17.23;;;;;;;;;;5014688;28;20419;-60
2022/09/27 02:48:49;;;;;;;46.13;17.13;;;;;;;;;;5016216;28;20036;-60
2022/09/27 02:51:18;;;;;;;46.67;17.23;;;;;;;;;;5016182;28;20196;-60
2022/09/27 02:53:48;;;;;;;45.67;16.98;;;;;;;;;;5015989;28;20543;-60
2022/09/27 02:56:19;;;;;;;45.10;16.73;;;;;;;;;;5015837;28;20573;-64
2022/09/27 02:59:05;;;;;;;43.40;16.33;;;;;;;;;;5015857;28;20144;-60
2022/09/27 03:01:38;;;;;;;42.33;16.42;;;;;;;;;;5015628;28;20030;-60
2022/09/27 03:04:04;;;;;;;38.22;15.77;;;;;;;;;;5015617;28;20095;-60
2022/09/27 03:06:32;;;;;;;41.17;15.43;;;;;;;;;;5014350;28;20040;-60
2022/09/27 03:08:59;;;;;;;38.80;15.57;;;;;;;;;;5015393;28;20383;-60
2022/09/27 03:11:26;;;;;;;34.55;13.98;;;;;;;;;;5015392;28;20022;-60
2022/09/27 03:13:53;;;;;;;40.45;15.52;;;;;;;;;;5015609;28;20065;-60
2022/09/27 03:16:20;;;;;;;37.75;14.00;;;;;;;;;;5015549;28;20045;-60
2022/09/27 03:18:47;;;;;;;35.50;14.77;;;;;;;;;;5015329;28;20034;-60
2022/09/27 03:21:14;;;;;;;41.53;15.50;;;;;;;;;;5015276;28;20038;-60
2022/09/27 03:23:41;;;;;;;33.58;13.95;;;;;;;;;;5015368;28;20044;-60
2022/09/27 03:26:08;;;;;;;36.35;14.52;;;;;;;;;;5015212;28;20038;-60
2022/09/27 03:28:35;;;;;;;38.25;14.15;;;;;;;;;;5015288;28;20037;-60
2022/09/27 03:31:02;;;;;;;31.52;13.23;;;;;;;;;;5015254;28;20018;-60
2022/09/27 03:33:30;;;;;;;28.67;12.50;;;;;;;;;;5015273;28;20036;-60
2022/09/27 03:35:57;;;;;;;33.70;13.55;;;;;;;;;;5015326;28;20526;-60
2022/09/27 03:38:24;;;;;;;29.23;12.40;;;;;;;;;;5015253;28;20033;-60
2022/09/27 03:40:51;;;;;;;26.98;12.32;;;;;;;;;;5013901;28;20080;-60
2022/09/27 03:43:18;;;;;;;31.25;12.48;;;;;;;;;;5014971;28;20042;-60
2022/09/27 03:45:46;;;;;;;25.05;11.38;;;;;;;;;;5015063;28;20033;-59
2022/09/27 03:48:13;;;;;;;28.77;11.88;;;;;;;;;;5014990;28;20056;-60
2022/09/27 03:50:40;;;;;;;25.77;11.02;;;;;;;;;;5014994;28;20053;-60
2022/09/27 03:53:07;;;;;;;32.10;12.48;;;;;;;;;;5015056;28;20072;-60
2022/09/27 03:55:34;;;;;;;28.27;11.52;;;;;;;;;;5014775;28;20488;-59
2022/09/27 03:58:01;;;;;;;27.38;11.23;;;;;;;;;;5014789;28;20813;-59
2022/09/27 04:00:31;;;;;;;25.58;10.35;;;;;;;;;;5014678;28;20037;-60
2022/09/27 04:02:59;;;;;;;27.15;11.23;;;;;;;;;;5014618;28;20034;-60
2022/09/27 04:05:27;;;;;;;25.13;11.07;;;;;;;;;;5014633;28;20137;-60
2022/09/27 04:07:55;;;;;;;24.10;10.05;;;;;;;;;;5014547;28;20065;-60
2022/09/27 04:10:22;;;;;;;26.08;10.32;;;;;;;;;;5014544;28;20452;-60
2022/09/27 04:12:49;;;;;;;27.10;10.20;;;;;;;;;;5014456;28;20034;-60
2022/09/27 04:15:16;;;;;;;23.42;9.95;;;;;;;;;;5014509;28;20109;-60
2022/09/27 04:17:43;;;;;;;21.05;9.77;;;;;;;;;;5014393;28;20030;-60
2022/09/27 04:20:11;;;;;;;21.20;9.45;;;;;;;;;;5014445;28;20030;-60
2022/09/27 04:22:43;;;;;;;22.75;10.02;;;;;;;;;;5014234;28;20041;-60
2022/09/27 04:25:10;;;;;;;23.02;9.73;;;;;;;;;;5014333;28;20479;-60
2022/09/27 04:27:37;;;;;;;24.00;10.07;;;;;;;;;;5014316;28;20138;-60
2022/09/27 04:30:05;;;;;;;24.48;9.50;;;;;;;;;;5014263;28;20123;-60
2022/09/27 04:32:32;;;;;;;18.83;8.70;;;;;;;;;;5014183;28;20086;-60
2022/09/27 04:37:45;;;;;;;19.50;8.00;;;;;;;;;;5014147;28;20040;-60
2022/09/27 04:40:12;;;;;;;18.95;8.32;;;;;;;;;;5013954;28;20030;-60
2022/09/27 04:42:39;;;;;;;17.45;8.38;;;;;;;;;;5012560;28;20041;-60
2022/09/27 04:45:06;;;;;;;15.85;7.63;;;;;;;;;;5014038;28;20554;-60
2022/09/27 04:47:33;;;;;;;17.05;8.15;;;;;;;;;;5013950;28;20033;-60
2022/09/27 04:50:00;;;;;;;20.38;8.05;;;;;;;;;;5014170;28;20117;-60
2022/09/27 04:52:27;;;;;;;16.48;7.95;;;;;;;;;;5013398;28;20081;-60
2022/09/27 04:54:54;;;;;;;18.88;7.80;;;;;;;;;;5013880;28;20034;-60
2022/09/27 04:57:21;;;;;;;18.15;8.13;;;;;;;;;;5013796;28;20475;-60
2022/09/27 04:59:50;;;;;;;18.77;7.88;;;;;;;;;;5013791;28;20029;-60
2022/09/27 05:02:17;;;;;;;13.95;7.32;;;;;;;;;;5013411;28;20045;-60
2022/09/27 05:04:44;;;;;;;18.30;8.27;;;;;;;;;;5013405;28;20446;-60
2022/09/27 05:07:11;;;;;;;17.25;7.80;;;;;;;;;;5013690;28;20113;-60
2022/09/27 05:09:38;;;;;;;17.63;8.00;;;;;;;;;;5013596;28;20052;-60
2022/09/27 05:12:07;;;;;;;15.40;7.35;;;;;;;;;;5013499;28;20372;-60
2022/09/27 05:14:34;;;;;;;15.02;7.45;;;;;;;;;;5013350;28;20125;-60
2022/09/27 05:17:01;;;;;;;14.75;6.70;;;;;;;;;;5013335;28;20041;-60
2022/09/27 05:19:28;;;;;;;13.07;6.65;;;;;;;;;;5013350;28;20615;-60
2022/09/27 05:21:55;;;;;;;15.75;6.97;;;;;;;;;;5011868;28;20025;-60
2022/09/27 05:24:22;;;;;;;16.05;7.57;;;;;;;;;;5013352;28;20027;-60
2022/09/27 05:26:49;;;;;;;14.32;6.75;;;;;;;;;;5013489;28;20476;-60
2022/09/27 05:29:16;;;;;;;15.43;6.95;;;;;;;;;;5013282;28;20025;-60
2022/09/27 05:31:43;;;;;;;12.00;6.68;;;;;;;;;;5013146;28;20106;-60
2022/09/27 05:34:11;;;;;;;16.42;7.63;;;;;;;;;;5013095;28;20029;-60
2022/09/27 05:36:39;;;;;;;14.85;7.15;;;;;;;;;;5013048;28;20034;-60
2022/09/27 05:39:06;;;;;;;14.77;6.78;;;;;;;;;;5013142;28;20033;-60
2022/09/27 05:41:34;;;;;;;13.77;6.93;;;;;;;;;;5012929;28;20116;-60
2022/09/27 05:44:01;;;;;;;15.30;6.93;;;;;;;;;;5012988;28;20063;-60
2022/09/27 05:46:28;;;;;;;13.98;6.82;;;;;;;;;;5013095;28;20435;-60
2022/09/27 05:48:55;;;;;;;11.77;5.88;;;;;;;;;;5012880;28;20442;-60
2022/09/27 05:51:22;;;;;;;11.43;5.72;;;;;;;;;;5012926;28;20038;-60
2022/09/27 05:53:49;;;;;;;11.55;6.10;;;;;;;;;;5012985;28;20038;-60
2022/09/27 05:56:16;;;;;;;13.80;6.55;;;;;;;;;;5012907;28;20480;-60
2022/09/27 05:58:43;;;;;;;13.55;6.53;;;;;;;;;;5012840;28;20060;-60
2022/09/27 06:01:10;;;;;;;13.40;6.30;;;;;;;;;;5006612;28;20042;-60
2022/09/27 06:03:39;;;;;;;13.98;6.68;;;;;;;;;;4993373;28;20054;-60
2022/09/27 06:06:06;;;;;;;13.40;6.55;;;;;;;;;;4997179;28;20062;-60
2022/09/27 06:08:37;;;;;;;12.45;6.30;;;;;;;;;;4997312;28;20022;-60
2022/09/27 06:11:06;;;;;;;15.13;7.55;;;;;;;;;;4997102;28;20469;-60
2022/09/27 06:13:33;;;;;;;12.23;6.30;;;;;;;;;;4997267;28;20035;-60
2022/09/27 06:16:00;;;;;;;12.70;5.63;;;;;;;;;;4997065;28;20112;-60
2022/09/27 06:18:27;;;;;;;13.48;6.43;;;;;;;;;;4997204;28;20026;-60
2022/09/27 06:20:54;;;;;;;12.32;5.65;;;;;;;;;;4997163;28;20374;-60
2022/09/27 06:23:22;;;;;;;11.25;5.80;;;;;;;;;;4996969;28;20034;-60
2022/09/27 06:25:50;;;;;;;13.00;5.78;;;;;;;;;;4997099;28;20503;-60
2022/09/27 06:28:18;;;;;;;10.40;5.47;;;;;;;;;;4997129;28;20030;-60
2022/09/27 06:30:49;;;;;;;11.05;5.50;;;;;;;;;;5138237;22;20081;-62
2022/09/27 06:33:18;;;;;;;11.38;5.97;;;;;;;;;;5033875;28;20111;-60
2022/09/27 06:35:45;;;;;;;9.85;5.55;;;;;;;;;;5056634;28;20394;-60
2022/09/27 06:38:14;;;;;;;10.93;5.53;;;;;;;;;;5056270;28;20031;-60
2022/09/27 06:40:45;;;;;;;9.38;4.65;;;;;;;;;;5056041;28;20067;-60
2022/09/27 06:43:13;;;;;;;9.20;4.90;;;;;;;;;;5055932;28;20474;-60
2022/09/27 06:45:40;;;;;;;10.23;4.80;;;;;;;;;;5056203;28;20024;-59
2022/09/27 06:48:07;;;;;;;9.25;4.68;;;;;;;;;;5055898;28;20025;-60
2022/09/27 06:50:36;;;;;;;10.07;4.38;;;;;;;;;;5055805;28;20074;-59
2022/09/27 06:53:03;;;;;;;8.43;4.03;;;;;;;;;;5055553;28;20501;-59
2022/09/27 06:55:30;;;;;;;9.18;4.40;;;;;;;;;;5055812;28;20031;-60
2022/09/27 07:00:46;;;;;;;8.90;4.25;;;;;;;;;;5055659;28;20059;-59
2022/09/27 07:03:13;;;;;;;6.88;3.97;;;;;;;;;;5055357;28;20390;-59
2022/09/27 07:05:41;;;;;;;6.13;3.65;;;;;;;;;;5055587;28;20386;-60
2022/09/27 07:08:10;;;;;;;9.07;4.10;;;;;;;;;;5055447;28;20013;-60
2022/09/27 07:10:38;;;;;;;7.80;3.97;;;;;;;;;;5055335;28;20028;-60
2022/09/27 07:13:06;;;;;;;7.10;3.40;;;;;;;;;;5055349;28;20024;-59
2022/09/27 07:15:37;;;;;;;6.53;3.55;;;;;;;;;;5055009;28;20368;-60
2022/09/27 07:18:05;;;;;;;6.82;3.13;;;;;;;;;;5055303;28;20104;-60
2022/09/27 07:20:34;;;;;;;6.53;3.58;;;;;;;;;;5055142;28;20032;-60
2022/09/27 07:23:01;;;;;;;6.35;3.60;;;;;;;;;;5055039;28;20025;-60
2022/09/27 07:25:28;;;;;;;8.10;3.63;;;;;;;;;;5055130;28;20032;-59
2022/09/27 07:27:55;;;;;;;6.13;3.25;;;;;;;;;;5055115;28;20031;-59
2022/09/27 07:30:22;;;;;;;7.45;3.58;;;;;;;;;;5055057;28;20064;-59
2022/09/27 07:32:49;;;;;;;6.57;2.92;;;;;;;;;;5054725;28;20041;-60
2022/09/27 07:35:16;;;;;;;5.88;2.88;;;;;;;;;;5055337;28;20021;-60
2022/09/27 07:37:44;;;;;;;6.05;3.50;;;;;;;;;;5054932;28;20014;-59
2022/09/27 07:40:11;;;;;;;5.15;2.88;;;;;;;;;;5054834;28;20079;-59
2022/09/27 07:42:38;;;;;;;5.70;2.75;;;;;;;;;;5054643;28;20029;-60
2022/09/27 07:45:06;;;;;;;5.05;2.90;;;;;;;;;;5054835;28;20482;-60
2022/09/27 07:47:33;;;;;;;5.57;3.00;;;;;;;;;;5054750;28;20028;-60
2022/09/27 07:50:00;;;;;;;4.55;2.83;;;;;;;;;;5054932;28;20096;-60
2022/09/27 07:52:27;;;;;;;5.53;2.63;;;;;;;;;;5054661;28;20109;-60
2022/09/27 07:54:54;;;;;;;5.65;3.17;;;;;;;;;;5054639;28;20530;-59
2022/09/27 07:57:22;;;;;;;5.15;2.55;;;;;;;;;;5054543;28;20126;-60
2022/09/27 07:59:49;;;;;;;4.95;2.60;;;;;;;;;;5054499;28;20017;-60
2022/09/27 08:02:17;;;;;;;5.20;2.63;;;;;;;;;;5054390;28;20029;-60
2022/09/27 08:04:46;;;;;;;6.28;2.92;;;;;;;;;;5054412;28;20053;-60
2022/09/27 08:07:13;;;;;;;4.13;2.30;;;;;;;;;;5054276;28;20040;-60
2022/09/27 08:09:40;;;;;;;6.38;2.50;;;;;;;;;;5054182;28;20067;-60
2022/09/27 08:12:07;;;;;;;4.57;2.60;;;;;;;;;;5036588;28;20070;-60
2022/09/27 08:14:34;;;;;;;4.20;2.38;;;;;;;;;;5054306;28;20029;-60
2022/09/27 08:17:01;;;;;;;3.67;2.47;;;;;;;;;;5054303;28;20022;-60
2022/09/27 08:19:28;;;;;;;4.53;2.22;;;;;;;;;;5054138;28;20036;-59
2022/09/27 08:21:55;;;;;;;3.97;2.40;;;;;;;;;;5053780;28;20031;-60
2022/09/27 08:24:22;;;;;;;5.05;2.45;;;;;;;;;;5053994;28;20378;-59
2022/09/27 08:26:49;;;;;;;3.40;2.10;;;;;;;;;;5053390;28;20055;-59
2022/09/27 08:29:16;;;;;;;4.35;2.30;;;;;;;;;;5053936;28;20474;-59
2022/09/27 08:31:43;;;;;;;2.97;2.15;;;;;;;;;;5053736;28;20109;-59
2022/09/27 08:34:10;;;;;;;3.58;1.92;;;;;;;;;;5053849;28;20515;-60
2022/09/27 08:36:37;;;;;;;4.60;2.38;;;;;;;;;;5053866;28;20021;-59
2022/09/27 08:39:05;;;;;;;4.32;2.10;;;;;;;;;;5053829;28;20363;-59
2022/09/27 08:41:44;;;;;;;4.15;2.25;;;;;;;;;;5053693;28;20024;-59
2022/09/27 08:44:17;;;;;;;5.00;2.17;;;;;;;;;;5053562;28;20509;-59
2022/09/27 08:46:43;;;;;;;3.80;2.05;;;;;;;;;;5053657;28;20083;-59
2022/09/27 08:49:14;;;;;;;3.17;1.95;;;;;;;;;;5053670;28;20056;-60
2022/09/27 08:51:42;;;;;;;3.75;1.90;;;;;;;;;;5035462;28;20017;-59
2022/09/27 08:54:14;;;;;;;4.75;1.85;;;;;;;;;;5053482;28;20032;-59
2022/09/27 08:56:41;;;;;;;3.72;1.92;;;;;;;;;;5053596;28;20107;-59
2022/09/27 08:59:19;;;;;;;3.20;2.10;;;;;;;;;;5053450;28;20112;-60
2022/09/27 09:01:47;;;;;;;3.05;1.70;;;;;;;;;;5053093;28;20021;-60
2022/09/27 09:04:15;;;;;;;2.88;1.58;;;;;;;;;;5053278;28;20061;-60
2022/09/27 09:06:48;;;;;;;4.35;2.05;;;;;;;;;;5053258;28;20024;-59
2022/09/27 09:09:15;;;;;;;2.97;1.52;;;;;;;;;;5053286;28;20028;-59
2022/09/27 09:14:58;;;;;;;3.10;1.67;;;;;;;;;;5053207;28;20079;-60
2022/09/27 09:17:43;;;;;;;3.05;1.65;;;;;;;;;;5053141;28;20437;-59
2022/09/27 09:20:19;;;;;;;3.78;1.50;;;;;;;;;;5053119;28;20025;-60
2022/09/27 09:22:47;;;;;;;2.45;1.48;;;;;;;;;;5053133;28;20032;-59
2022/09/27 09:25:23;;;;;;;2.92;1.65;;;;;;;;;;5052281;28;20045;-60
2022/09/27 09:27:59;;;;;;;3.00;1.50;;;;;;;;;;5052602;28;20036;-60
2022/09/27 09:30:30;;;;;;;2.50;1.70;;;;;;;;;;5052743;28;20025;-60
2022/09/27 09:33:04;;;;;;;3.10;1.80;;;;;;;;;;5052578;28;20052;-60
2022/09/27 09:35:37;;;;;;;3.22;1.55;;;;;;;;;;5052662;28;20037;-60
2022/09/27 09:38:06;;;;;;;2.70;1.70;;;;;;;;;;5036528;28;20025;-60
2022/09/27 09:40:42;;;;;;;2.67;1.75;;;;;;;;;;5032171;28;20479;-60
2022/09/27 09:43:18;;;;;;;3.30;1.70;;;;;;;;;;5030827;28;20030;-60
2022/09/27 09:45:47;;;;;;;4.18;1.58;;;;;;;;;;5030318;28;20068;-63
2022/09/27 09:48:40;;;;;;;3.40;1.55;;;;;;;;;;5031558;28;20037;-63
2022/09/27 09:51:09;;;;;;;3.15;1.60;;;;;;;;;;5028904;28;20038;-62
2022/09/27 09:53:40;;;;;;;2.58;1.50;;;;;;;;;;5032395;28;20036;-63
2022/09/27 09:56:15;;;;;;;3.72;1.70;;;;;;;;;;5032657;28;20025;-63
2022/09/27 09:58:48;;;;;;;2.78;1.60;;;;;;;;;;5032627;28;20040;-62
2022/09/27 10:01:22;;;;;;;2.63;1.45;;;;;;;;;;5032486;28;20018;-63
2022/09/27 10:03:53;;;;;;;2.63;1.30;;;;;;;;;;5032515;28;20025;-63
2022/09/27 10:06:20;;;;;;;4.28;1.67;;;;;;;;;;5032648;28;20029;-62
2022/09/27 10:08:52;;;;;;;3.28;1.75;;;;;;;;;;5031436;28;20068;-63
2022/09/27 10:11:22;;;;;;;2.63;1.65;;;;;;;;;;5032277;28;20104;-62
2022/09/27 10:13:49;;;;;;;2.42;1.20;;;;;;;;;;5032638;28;20440;-62
2022/09/27 10:16:17;;;;;;;2.33;1.50;;;;;;;;;;5032451;28;20075;-64
2022/09/27 10:18:45;;;;;;;9.50;2.17;;;;;;;;;;5032485;28;20025;-65
2022/09/27 10:21:15;;;;;;;6.22;2.20;;;;;;;;;;5032348;28;20025;-65
2022/09/27 10:24:00;;;;;;;6.78;1.98;;;;;;;;;;5014894;28;20041;-66
2022/09/27 10:26:27;;;;;;;8.05;2.22;;;;;;;;;;5014480;28;20391;-65
2022/09/27 10:28:54;;;;;;;6.68;1.90;;;;;;;;;;5031647;28;20116;-66
2022/09/27 10:31:22;;;;;;;8.73;1.80;;;;;;;;;;5031870;28;20033;-64
2022/09/27 10:33:55;;;;;;;5.85;1.80;;;;;;;;;;5031451;28;20076;-64
2022/09/27 10:36:23;;;;;;;6.78;2.03;;;;;;;;;;5029468;28;20030;-64
2022/09/27 10:38:54;;;;;;;4.93;1.90;;;;;;;;;;5031187;28;20075;-64
2022/09/27 10:41:35;;;;;;;4.22;1.80;;;;;;;;;;5031642;28;20018;-65
2022/09/27 10:44:17;;;;;;;8.20;1.88;;;;;;;;;;5031227;28;20038;-64
2022/09/27 10:46:45;;;;;;;3.63;1.60;;;;;;;;;;5032155;28;20034;-65
2022/09/27 10:49:32;;;;;;;6.25;2.10;;;;;;;;;;5031698;28;20116;-64
2022/09/27 10:51:58;;;;;;;4.18;1.80;;;;;;;;;;5017964;28;20037;-64
2022/09/27 10:54:27;;;;;;;3.63;1.65;;;;;;;;;;5035757;28;20022;-64
2022/09/27 10:57:04;;;;;;;3.05;1.52;;;;;;;;;;5035862;28;20021;-64
2022/09/27 10:59:33;;;;;;;5.40;1.85;;;;;;;;;;5034438;28;20028;-64
2022/09/27 11:02:01;;;;;;;4.18;1.73;;;;;;;;;;5035555;28;20018;-64
2022/09/27 11:04:30;;;;;;;3.75;1.42;;;;;;;;;;5034385;28;20033;-64
2022/09/27 11:07:17;;;;;;;5.70;1.83;;;;;;;;;;5035682;28;20029;-64
2022/09/27 11:10:04;;;;;;;5.65;1.80;;;;;;;;;;5035414;28;20036;-64
2022/09/27 11:12:34;;;;;;;3.15;1.60;;;;;;;;;;5035725;28;20041;-63
2022/09/27 11:15:06;;;;;;;3.83;1.58;;;;;;;;;;5035411;28;20075;-62
2022/09/27 11:17:50;;;;;;;14.73;2.20;;;;;;;;;;5035481;28;20108;-62
2022/09/27 11:20:16;;;;;;;13.35;2.40;;;;;;;;;;5035207;28;20021;-61
2022/09/27 11:22:43;;;;;;;23.45;2.63;;;;;;;;;;5035285;28;20040;-52
2022/09/27 11:25:30;;;;;;;18.50;1.70;;;;;;;;;;5035299;28;20018;-59
2022/09/27 11:28:20;;;;;;;91.03;6.75;;;;;;;;;;5035117;28;20018;-60
2022/09/27 11:30:54;;;;;;;65.15;6.25;;;;;;;;;;5025137;28;20115;-60
2022/09/27 11:33:27;;;;;;;121.40;7.65;;;;;;;;;;5034949;28;20038;-60
2022/09/27 11:36:17;;;;;;;78.20;6.57;;;;;;;;;;5035045;28;20021;-60
2022/09/27 11:39:06;;;;;;;51.42;5.65;;;;;;;;;;5034549;28;20523;-60
2022/09/27 11:41:39;;;;;;;33.22;3.92;;;;;;;;;;5034845;28;20025;-60
2022/09/27 11:44:05;;;;;;;28.95;3.40;;;;;;;;;;5034864;28;20041;-60
2022/09/27 11:46:32;;;;;;;28.38;3.60;;;;;;;;;;5034848;28;20021;-59
2022/09/27 11:49:09;;;;;;;39.05;4.00;;;;;;;;;;5034872;28;20049;-57
2022/09/27 11:51:46;;;;;;;25.17;3.30;;;;;;;;;;5034604;28;20026;-58
2022/09/27 11:54:16;;;;;;;27.73;3.17;;;;;;;;;;5034836;28;20059;-59
2022/09/27 11:56:52;;;;;;;31.95;3.47;;;;;;;;;;5034701;28;20017;-58
2022/09/27 11:59:36;;;;;;;35.30;3.28;;;;;;;;;;5034737;28;20021;-58
2022/09/27 12:02:06;;;;;;;33.25;3.40;;;;;;;;;;5033284;28;20036;-57
2022/09/27 12:04:48;;;;;;;39.33;3.72;;;;;;;;;;5034544;28;20071;-58
2022/09/27 12:07:23;;;;;;;39.95;3.85;;;;;;;;;;5034571;28;20026;-57
2022/09/27 12:09:57;;;;;;;40.53;3.30;;;;;;;;;;5034568;28;20026;-56
2022/09/27 12:12:29;;;;;;;29.98;3.40;;;;;;;;;;5034404;28;20036;-56
2022/09/27 12:14:55;;;;;;;;;;;;;;;;;;5034778;28;20109;-56
2022/09/27 12:17:42;;;;;;;37.88;3.63;;;;;;;;;;5034394;28;19904;-55
2022/09/27 12:20:15;;;;;;;23.73;2.72;;;;;;;;;;5034268;28;20049;-58
2022/09/27 12:22:56;;;;;;;25.30;2.92;;;;;;;;;;5033960;28;20438;-56
2022/09/27 12:25:24;;;;;;;25.70;2.65;;;;;;;;;;5034195;28;20383;-56
2022/09/27 12:27:56;;;;;;;28.50;2.35;;;;;;;;;;5033989;28;20126;-56
2022/09/27 12:30:22;;;;;;;32.83;3.17;;;;;;;;;;5033984;28;20101;-56
2022/09/27 12:32:55;;;;;;;26.80;2.25;;;;;;;;;;5033723;28;20052;-54
2022/09/27 12:35:23;;;;;;;26.70;2.67;;;;;;;;;;5034012;28;20022;-56
2022/09/27 12:37:53;;;;;;;34.75;3.50;;;;;;;;;;5033927;28;20030;-54
2022/09/27 12:40:34;;;;;;;45.50;4.10;;;;;;;;;;5033722;28;20042;-54
2022/09/27 12:43:10;;;;;;;33.53;3.50;;;;;;;;;;5033713;28;20124;-55
2022/09/27 12:45:51;;;;;;;27.95;3.17;;;;;;;;;;5033749;28;20025;-58
2022/09/27 12:48:21;;;;;;;33.55;3.60;;;;;;;;;;5033693;28;20021;-59
2022/09/27 12:50:51;;;;;;;47.40;3.92;;;;;;;;;;5033633;28;20083;-60
2022/09/27 12:53:22;;;;;;;41.55;3.85;;;;;;;;;;5033582;28;20029;-60
2022/09/27 12:55:58;;;;;;;46.50;4.10;;;;;;;;;;5033790;28;20025;-61
2022/09/27 12:58:44;;;;;;;40.85;3.72;;;;;;;;;;5033535;28;20044;-61
2022/09/27 13:01:29;;;;;;;39.35;3.55;;;;;;;;;;5033369;28;20021;-61
2022/09/27 13:04:11;;;;;;;35.70;3.55;;;;;;;;;;5033271;28;20063;-61
2022/09/27 13:06:46;;;;;;;26.73;3.97;;;;;;;;;;5033444;28;20022;-58
2022/09/27 13:09:13;;;;;;;25.65;3.35;;;;;;;;;;5033275;28;20107;-58
2022/09/27 13:12:00;;;;;;;26.27;3.17;;;;;;;;;;5033280;28;20104;-58
2022/09/27 13:14:29;;;;;;;23.27;2.88;;;;;;;;;;5032871;28;20045;-58
2022/09/27 13:16:56;;;;;;;31.13;2.90;;;;;;;;;;5033221;28;20018;-58
2022/09/27 13:19:44;;;;;;;21.08;2.65;;;;;;;;;;5033171;28;20036;-58
2022/09/27 13:22:31;;;;;;;22.95;3.03;;;;;;;;;;5032785;28;20049;-58
2022/09/27 13:24:58;;;;;;;21.40;2.33;;;;;;;;;;5033000;28;20424;-58
2022/09/27 13:27:28;;;;;;;17.25;2.65;;;;;;;;;;5033053;28;20487;-58
2022/09/27 13:30:18;;;;;;;28.92;2.83;;;;;;;;;;5033024;28;20160;-58
2022/09/27 13:33:12;;;;;;;16.00;2.35;;;;;;;;;;5032715;28;20080;-58
2022/09/27 13:35:39;;;;;;;23.27;2.30;;;;;;;;;;5003341;28;20038;-58
2022/09/27 13:38:21;;;;;;;20.02;3.00;;;;;;;;;;5032919;28;20120;-58
2022/09/27 13:40:48;;;;;;;16.42;2.17;;;;;;;;;;5032740;28;20490;-59
2022/09/27 13:43:50;;;;;;;19.08;2.70;;;;;;;;;;5032807;28;20558;-58
2022/09/27 13:46:19;;;;;;;19.97;2.57;;;;;;;;;;4952675;29;20421;-58
2022/09/27 13:48:52;;;;;;;17.45;2.65;;;;;;;;;;5018422;28;20287;-58
2022/09/27 13:51:25;;;;;;;16.63;2.03;;;;;;;;;;5032619;28;20044;-58
2022/09/27 13:53:57;;;;;;;22.67;2.47;;;;;;;;;;5032631;28;20029;-58
2022/09/27 13:56:45;;;;;;;17.67;2.57;;;;;;;;;;5032688;28;20595;-58
2022/09/27 13:59:16;;;;;;;19.27;2.35;;;;;;;;;;5032609;28;20041;-58
2022/09/27 14:01:47;;;;;;;28.60;3.03;;;;;;;;;;5032532;28;20053;-58
2022/09/27 14:04:34;;;;;;;18.27;2.40;;;;;;;;;;5032595;28;20380;-58
2022/09/27 14:07:02;;;;;;;13.88;2.40;;;;;;;;;;5032212;28;20037;-58
2022/09/27 14:09:31;;;;;;;26.40;2.75;;;;;;;;;;5032210;28;20483;-58
2022/09/27 14:11:59;;;;;;;21.85;2.38;;;;;;;;;;5030113;28;20364;-58
2022/09/27 14:14:29;;;;;;;21.25;2.78;;;;;;;;;;5012558;28;20045;-58
2022/09/27 14:16:58;;;;;;;27.70;3.45;;;;;;;;;;5012697;28;20034;-58
2022/09/27 14:19:26;;;;;;;21.85;2.97;;;;;;;;;;5012721;28;20034;-58
2022/09/27 14:21:53;;;;;;;11.77;1.88;;;;;;;;;;5012622;28;20102;-57
2022/09/27 14:24:23;;;;;;;20.75;2.20;;;;;;;;;;5011905;28;20069;-57
2022/09/27 14:26:51;;;;;;;20.27;2.80;;;;;;;;;;5016391;28;20105;-57
2022/09/27 14:29:19;;;;;;;14.50;2.53;;;;;;;;;;5016108;28;20096;-57
2022/09/27 14:31:50;;;;;;;14.60;2.33;;;;;;;;;;4998501;28;20030;-58
2022/09/27 14:34:17;;;;;;;19.90;2.63;;;;;;;;;;5016579;28;20080;-58
2022/09/27 14:39:32;;;;;;;17.35;2.90;;;;;;;;;;5016636;28;20574;-57
2022/09/27 14:42:03;;;;;;;23.10;3.17;;;;;;;;;;5016103;28;20030;-58
2022/09/27 14:44:31;;;;;;;22.00;3.33;;;;;;;;;;5016214;28;20034;-57
2022/09/27 14:47:16;;;;;;;16.80;4.60;;;;;;;;;;5016197;28;20087;-57
2022/09/27 14:49:47;;;;;;;25.90;9.30;;;;;;;;;;5016195;28;20030;-57
2022/09/27 14:52:27;;;;;;;25.95;9.25;;;;;;;;;;5015893;28;20567;-57
2022/09/27 14:55:23;;;;;;;23.80;8.57;;;;;;;;;;5015968;28;20034;-57
2022/09/27 14:57:54;;;;;;;23.50;8.00;;;;;;;;;;4999561;28;20431;-58
2022/09/27 15:00:27;;;;;;;18.93;7.83;;;;;;;;;;5015922;28;20491;-58
2022/09/27 15:02:57;;;;;;;26.33;8.85;;;;;;;;;;5015644;28;20034;-58
2022/09/27 15:05:25;;;;;;;22.67;7.45;;;;;;;;;;5015410;28;20407;-58